Buckman Springs (441, 629) Station Data

Red Flag Warning: No
Fire Weather Zone: 258
SDGE Region: Mountain Empire
Lat/Lon: 32.762/-116.489

Observations

Time Wind Speed/Gust Temp(F) RH Fuel Moist Fuel Temp(F) Dewpt(F) Tmax(F) Tmin(F) Accum Precip 10-min Precip SL Press(mb)
4/26 2:50am 35 0 G 2 47° 72% - - 38° 49.8° 43.3° - - -
4/26 2:40am 61 2 G 3 45° 76% - - 38° 49.8° 43.3° - - -
4/26 2:30am 31 3 G 4 45° 79% - - 39° 49.8° 43.3° - - -
4/26 2:20am 13 2 G 4 44° 80% - - 38° 49.8° 43.3° - - -
4/26 2:10am 97 1 G 3 44° 79% - - 38° 49.8° 43.3° - - -
4/26 2:00am 152 1 G 3 45° 78% - - 38° 49.8° 43.8° - - -
4/26 1:50am 32 2 G 3 45° 80% - - 39° 49.8° 43.8° - - -
4/26 1:40am 77 2 G 4 45° 80% - - 39° 49.8° 44.1° - - -
4/26 1:30am 167 2 G 6 46° 78% - - 40° 49.8° 44.9° - - -
4/26 1:20am 16 1 G 2 46° 81% - - 41° 49.8° 45.5° - - -
4/26 1:10am 48 2 G 4 46° 82% - - 41° 49.8° 45.5° - - -
4/26 1:00am 220 4 G 7 46° 81% - - 41° 49.8° 45.7° - - -
4/26 12:50am 100 2 G 4 46° 78% - - 40° 49.8° 45.8° - - -
4/26 12:40am 147 2 G 5 48° 76% - - 41° 49.8° 46.9° - - -
4/26 12:30am 47 2 G 4 48° 78% - - 42° 49.8° 47.3° - - -
4/26 12:20am 49 3 G 5 48° 77% - - 41° 49.8° 47.3° - - -
4/26 12:10am 321 3 G 10 49° 76% - - 41° 49.8° 47.3° - - -
4/26 12:00am 192 2 G 5 47° 79% - - 41° 61.4° 46.7° - - -
4/25 11:50pm 129 3 G 4 48° 77% - - 41° 61.4° 46.7° - - -
4/25 11:40pm 61 2 G 4 48° 77% - - 41° 61.4° 46.7° - - -
4/25 11:30pm 357 3 G 6 50° 72% - - 41° 61.4° 46.7° - - -
4/25 11:20pm 309 5 G 7 51° 69% - - 42° 61.4° 46.7° - - -
4/25 11:10pm 314 6 G 11 51° 73% - - 42° 61.4° 46.7° - - -
4/25 11:00pm 194 2 G 5 49° 77% - - 42° 61.4° 46.7° - - -
4/25 10:50pm 309 3 G 6 51° 73% - - 42° 61.4° 46.7° - - -
4/25 10:40pm 12 5 G 10 51° 72% - - 43° 61.4° 46.7° - - -
4/25 10:30pm 128 2 G 9 51° 74% - - 43° 61.4° 46.7° - - -
4/25 10:20pm 20 2 G 5 51° 77% - - 44° 61.4° 46.7° - - -
4/25 10:10pm 151 1 G 2 50° 79% - - 43° 61.4° 46.7° - - -
4/25 10:00pm 315 2 G 4 50° 79% - - 44° 61.4° 46.7° - - -
4/25 9:50pm 199 2 G 5 50° 79% - - 44° 61.4° 46.7° - - -
4/25 9:40pm 202 3 G 5 50° 78% - - 44° 61.4° 46.7° - - -
4/25 9:30pm 213 3 G 6 51° 77% - - 44° 61.4° 46.7° - - -
4/25 9:20pm 268 3 G 5 52° 76% - - 44° 61.4° 46.7° - - -
4/25 9:10pm 324 3 G 8 52° 76% - - 45° 61.4° 46.7° - - -
4/25 9:00pm 93 2 G 4 52° 76% - - 45° 61.4° 46.7° - - -
4/25 8:50pm 15 1 G 3 52° 76% - - 45° 61.4° 46.7° - - -
4/25 8:40pm 26 3 G 7 52° 75% - - 45° 61.4° 46.7° - - -
4/25 8:30pm 356 3 G 6 53° 75% - - 45° 61.4° 46.7° - - -
4/25 8:20pm 339 4 G 11 53° 75% - - 45° 61.4° 46.7° - - -
4/25 8:10pm 303 6 G 10 53° 75% - - 45° 61.4° 46.7° - - -
4/25 8:00pm 296 6 G 13 53° 75% - - 45° 61.4° 46.7° - - -
4/25 7:50pm 286 7 G 13 53° 76% - - 45° 61.4° 46.7° - - -
4/25 7:40pm 279 6 G 10 53° 75% - - 46° 61.4° 46.7° - - -
4/25 7:30pm 282 7 G 13 54° 73% - - 46° 61.4° 46.7° - - -
4/25 7:20pm 266 5 G 9 54° 74% - - 46° 61.4° 46.7° - - -
4/25 7:10pm 285 7 G 13 54° 73% - - 46° 61.4° 46.7° - - -
4/25 7:00pm 290 5 G 10 55° 72% - - 46° 61.4° 46.7° - - -
4/25 6:50pm 287 7 G 12 55° 72% - - 46° 61.4° 46.7° - - -
4/25 6:40pm 290 6 G 12 55° 72% - - 46° 61.4° 46.7° - - -
4/25 6:30pm 270 7 G 12 55° 72% - - 46° 61.4° 46.7° - - -
4/25 6:20pm 275 6 G 11 55° 72% - - 46° 61.4° 46.7° - - -
4/25 6:10pm 302 7 G 14 55° 71% - - 46° 61.4° 46.7° - - -
4/25 6:00pm 289 6 G 10 55° 70% - - 46° 61.4° 46.7° - - -
4/25 5:50pm 300 7 G 14 56° 69% - - 46° 61.4° 46.7° - - -
4/25 5:40pm 289 7 G 12 56° 68% - - 46° 61.4° 46.7° - - -
4/25 5:30pm 271 8 G 14 56° 69% - - 46° 61.4° 46.7° - - -
4/25 5:20pm 262 7 G 15 56° 68% - - 46° 61.4° 46.7° - - -
4/25 5:10pm 274 8 G 16 56° 67% - - 46° 61.4° 46.7° - - -
4/25 5:00pm 318 7 G 17 57° 64% - - 45° 61.4° 46.7° - - -
4/25 4:50pm 304 5 G 12 58° 62% - - 45° 61.4° 46.7° - - -
4/25 4:40pm 307 7 G 13 57° 63% - - 45° 61.4° 46.7° - - -
4/25 4:30pm 308 5 G 11 58° 62% - - 45° 61.4° 46.7° - - -
4/25 4:20pm 295 8 G 16 57° 63% - - 45° 61.4° 46.7° - - -
4/25 4:10pm 294 9 G 21 58° 62% - - 45° 61.4° 46.7° - - -
4/25 4:00pm 283 8 G 14 58° 62% - - 45° 61.4° 46.7° - - -
4/25 3:50pm 303 8 G 17 58° 62% - - 45° 61.4° 46.7° - - -
4/25 3:40pm 309 7 G 12 58° 61% - - 45° 61.4° 46.7° - - -
4/25 3:30pm 292 7 G 14 58° 61% - - 45° 61.4° 46.7° - - -
4/25 3:20pm 285 8 G 14 58° 61% - - 45° 61.4° 46.7° - - -
4/25 3:10pm 282 9 G 14 58° 60% - - 44° 61.4° 46.7° - - -
4/25 3:00pm 299 7 G 13 58° 58% - - 44° 61.4° 46.7° - - -
4/25 2:50pm 275 7 G 13 59° 57% - - 43° 61.4° 46.7° - - -
4/25 2:40pm 318 6 G 15 60° 55% - - 44° 61.4° 46.7° - - -
4/25 2:30pm 300 6 G 13 59° 56% - - 44° 61.4° 46.7° - - -
4/25 2:20pm 338 9 G 17 60° 53% - - 43° 61.4° 46.7° - - -
4/25 2:10pm 333 8 G 15 60° 52% - - 43° 61.4° 46.7° - - -
4/25 2:00pm 307 8 G 15 60° 53% - - 43° 61.4° 46.7° - - -
4/25 1:50pm 294 8 G 17 60° 52% - - 42° 61.4° 46.7° - - -
4/25 1:40pm 304 8 G 15 60° 52% - - 42° 61.4° 46.7° - - -
4/25 1:30pm 295 8 G 15 60° 52% - - 43° 61.4° 46.7° - - -
4/25 1:20pm 279 6 G 15 59° 53% - - 42° 60.6° 46.7° - - -
4/25 1:10pm 313 7 G 17 59° 53% - - 42° 60.6° 46.7° - - -
4/25 1:00pm 300 8 G 20 60° 52% - - 42° 60.3° 46.7° - - -
4/25 12:50pm 299 9 G 19 59° 54% - - 42° 60° 46.7° - - -
4/25 12:40pm 279 11 G 21 58° 54% - - 42° 59.5° 46.7° - - -
4/25 12:30pm 293 7 G 14 59° 53% - - 42° 59.5° 46.7° - - -
4/25 12:20pm 314 8 G 20 59° 52% - - 41° 59.5° 46.7° - - -
4/25 12:10pm 322 8 G 15 58° 52% - - 40° 58.6° 46.7° - - -
4/25 12:00pm 299 9 G 14 57° 54% - - 41° 58.2° 46.7° - - -
4/25 11:50am 313 9 G 17 57° 54% - - 41° 58.2° 46.7° - - -
4/25 11:40am 319 8 G 18 57° 57% - - 41° 58° 46.7° - - -
4/25 11:30am 297 8 G 18 57° 57% - - 41° 58° 46.7° - - -
4/25 11:20am 306 8 G 17 57° 56% - - 41° 58° 46.7° - - -
4/25 11:10am 320 10 G 22 57° 55% - - 41° 58° 46.7° - - -
4/25 11:00am 330 10 G 19 56° 55% - - 40° 57.5° 46.7° - - -
4/25 10:50am 305 9 G 22 56° 56% - - 41° 57.2° 46.7° - - -
4/25 10:40am 293 8 G 15 56° 57% - - 41° 56.7° 46.7° - - -
4/25 10:30am 282 10 G 17 56° 58% - - 41° 56.7° 46.7° - - -
4/25 10:20am 300 8 G 18 55° 59% - - 41° 56.4° 46.7° - - -
4/25 10:10am 335 6 G 16 55° 59% - - 41° 56.4° 46.7° - - -
4/25 10:00am 251 6 G 16 55° 61% - - 41° 56.1° 46.7° - - -
4/25 9:50am 331 8 G 22 56° 59% - - 41° 56.1° 46.7° - - -
4/25 9:40am 359 7 G 19 55° 60% - - 42° 56.1° 46.7° - - -
4/25 9:30am 35 4 G 11 54° 64% - - 42° 55.2° 46.7° - - -
4/25 9:20am 320 10 G 23 53° 64% - - 42° 55.2° 46.7° - - -
4/25 9:10am 325 7 G 17 55° 63% - - 42° 55.2° 46.7° - - -
4/25 9:00am 294 8 G 19 54° 65% - - 42° 54.6° 46.7° - - -
4/25 8:50am 330 6 G 17 54° 65% - - 42° 54.6° 46.7° - - -
4/25 8:40am 319 8 G 18 53° 67% - - 42° 53.2° 46.7° - - -
4/25 8:30am 339 9 G 14 53° 68% - - 42° 53.2° 46.7° - - -
4/25 8:20am 324 6 G 12 52° 69% - - 43° 53.1° 46.7° - - -
4/25 8:10am 306 7 G 15 52° 69% - - 42° 52.5° 46.7° - - -
4/25 8:00am 332 8 G 15 52° 71% - - 43° 52.2° 46.7° - - -
4/25 7:50am 329 8 G 15 51° 71% - - 43° 51.7° 46.7° - - -
4/25 7:40am 323 8 G 14 51° 73% - - 43° 51.7° 46.7° - - -
4/25 7:30am 310 8 G 12 51° 75% - - 43° 51.1° 46.7° - - -
4/25 7:20am 317 7 G 12 50° 75% - - 43° 50.9° 46.7° - - -
4/25 7:10am 328 7 G 10 50° 77% - - 43° 50.2° 46.7° - - -
4/25 7:00am 315 6 G 9 49° 79% - - 43° 49.7° 46.7° - - -
4/25 6:50am 316 3 G 6 49° 80% - - 43° 49.4° 46.7° - - -
4/25 6:40am 299 3 G 8 49° 82% - - 43° 49° 46.7° - - -
4/25 6:30am 282 3 G 5 48° 84% - - 44° 48.7° 46.7° - - -
4/25 6:20am 299 2 G 6 48° 88% - - 44° 48.7° 46.7° - - -
4/25 6:10am 270 3 G 4 48° 90% - - 45° 48.7° 46.7° - - -
4/25 6:00am 224 1 G 3 48° 91% - - 45° 48.7° 46.7° - - -
4/25 5:50am 280 2 G 4 47° 91% - - 45° 48.7° 46.7° - - -
4/25 5:40am 229 3 G 6 47° 92% - - 45° 48.7° 46.7° - - -
4/25 5:30am 206 3 G 5 47° 92% - - 45° 48.7° 46.7° - - -
4/25 5:20am 235 3 G 5 47° 93% - - 45° 48.7° 46.7° - - -
4/25 5:10am 202 3 G 5 47° 93% - - 45° 48.7° 46.7° - - -
4/25 5:00am 191 4 G 6 47° 93% - - 45° 48.7° 46.7° - - -
4/25 4:50am 197 4 G 6 47° 93% - - 45° 48.7° 46.7° - - -
4/25 4:40am 206 3 G 6 47° 93% - - 45° 48.7° 46.7° - - -
4/25 4:30am 219 4 G 7 47° 93% - - 45° 48.7° 46.7° - - -
4/25 4:20am 206 4 G 7 47° 93% - - 45° 48.7° 46.7° - - -
4/25 4:10am 216 4 G 6 47° 93% - - 45° 48.7° 46.7° - - -
4/25 4:00am 215 5 G 8 47° 93% - - 45° 48.7° 46.7° - - -
4/25 3:50am 199 6 G 9 47° 93% - - 45° 48.7° 46.7° - - -
4/25 3:40am 192 4 G 8 47° 93% - - 45° 48.7° 46.7° - - -
4/25 3:30am 179 3 G 6 47° 92% - - 45° 48.7° 46.7° - - -
4/25 3:20am 197 4 G 6 47° 93% - - 45° 48.7° 46.7° - - -
4/25 3:10am 196 4 G 6 47° 93% - - 45° 48.7° 46.7° - - -
4/25 3:00am 218 3 G 7 47° 93% - - 45° 48.7° 46.7° - - -
4/25 2:50am 191 4 G 7 47° 92% - - 45° 48.7° 46.7° - - -
4/25 2:40am 236 3 G 5 47° 92% - - 45° 48.7° 46.7° - - -
4/25 2:30am 221 5 G 9 47° 92% - - 45° 48.7° 46.7° - - -
4/25 2:20am 227 3 G 6 47° 92% - - 45° 48.7° 46.7° - - -
4/25 2:10am 237 3 G 6 47° 91% - - 45° 48.7° 46.7° - - -
4/25 2:00am 211 4 G 5 47° 91% - - 45° 48.7° 46.7° - - -
4/25 1:50am 210 3 G 7 47° 91% - - 45° 48.7° 46.7° - - -
4/25 1:40am 197 4 G 6 47° 90% - - 44° 48.7° 46.7° - - -
4/25 1:30am 189 2 G 5 47° 90% - - 44° 48.7° 46.7° - - -
4/25 1:20am 200 4 G 7 47° 89% - - 44° 48.7° 46.7° - - -
4/25 1:10am 196 3 G 6 47° 89% - - 44° 48.7° 46.7° - - -
4/25 1:00am 182 5 G 8 47° 88% - - 44° 48.7° 46.7° - - -
4/25 12:50am 198 5 G 7 47° 88% - - 44° 48.7° 46.8° - - -
4/25 12:40am 197 4 G 8 47° 86% - - 43° 48.7° 47.1° - - -
4/25 12:30am 186 5 G 7 48° 84% - - 43° 48.7° 47.3° - - -
4/25 12:20am 172 5 G 8 48° 82% - - 43° 48.7° 47.7° - - -
4/25 12:10am 199 5 G 7 48° 80% - - 43° 48.7° 48.1° - - -
4/25 12:00am 159 2 G 5 48° 78% - - 42° 66.6° 41.7° - - -
4/24 11:50pm 31 1 G 2 47° 78% - - 41° 66.6° 41.7° - - -
4/24 11:40pm 348 2 G 5 46° 78% - - 40° 66.6° 41.7° - - -
4/24 11:30pm 317 2 G 3 46° 78% - - 40° 66.6° 41.7° - - -
4/24 11:20pm 11 0 G 2 46° 77% - - 39° 66.6° 41.7° - - -
4/24 11:10pm 12 1 G 2 46° 77% - - 40° 66.6° 41.7° - - -
4/24 11:00pm 339 2 G 4 47° 78% - - 40° 66.6° 41.7° - - -
4/24 10:50pm 330 3 G 4 46° 78% - - 40° 66.6° 41.7° - - -
4/24 10:40pm 232 2 G 3 47° 77% - - 40° 66.6° 41.7° - - -
4/24 10:30pm 144 2 G 4 47° 76% - - 40° 66.6° 41.7° - - -
4/24 10:20pm 178 2 G 4 47° 74% - - 40° 66.6° 41.7° - - -
4/24 10:10pm 184 4 G 7 48° 71% - - 39° 66.6° 41.7° - - -
4/24 10:00pm 258 2 G 6 50° 66% - - 39° 66.6° 41.7° - - -
4/24 9:50pm 321 4 G 6 51° 65% - - 40° 66.6° 41.7° - - -
4/24 9:40pm 312 5 G 10 51° 65% - - 40° 66.6° 41.7° - - -
4/24 9:30pm 309 4 G 7 52° 64% - - 40° 66.6° 41.7° - - -
4/24 9:20pm 303 4 G 7 52° 64% - - 40° 66.6° 41.7° - - -
4/24 9:10pm 328 5 G 10 52° 65% - - 41° 66.6° 41.7° - - -
4/24 9:00pm 320 4 G 8 52° 66% - - 41° 66.6° 41.7° - - -
4/24 8:50pm 321 5 G 10 52° 68% - - 42° 66.6° 41.7° - - -
4/24 8:40pm 325 5 G 11 53° 67% - - 42° 66.6° 41.7° - - -
4/24 8:30pm 333 7 G 10 53° 66% - - 42° 66.6° 41.7° - - -
4/24 8:20pm 326 6 G 11 53° 65% - - 42° 66.6° 41.7° - - -
4/24 8:10pm 325 8 G 12 53° 65% - - 42° 66.6° 41.7° - - -
4/24 8:00pm 330 8 G 14 54° 66% - - 42° 66.6° 41.7° - - -
4/24 7:50pm 313 7 G 10 53° 72% - - 45° 66.6° 41.7° - - -
4/24 7:40pm 307 8 G 14 54° 72% - - 45° 66.6° 41.7° - - -
4/24 7:30pm 301 8 G 12 55° 64% - - 43° 66.6° 41.7° - - -
4/24 7:20pm 298 6 G 11 56° 60% - - 42° 66.6° 41.7° - - -
4/24 7:10pm 308 6 G 10 56° 59% - - 42° 66.6° 41.7° - - -
4/24 7:00pm 299 7 G 13 57° 58% - - 42° 66.6° 41.7° - - -
4/24 6:50pm 304 8 G 14 57° 55% - - 41° 66.6° 41.7° - - -
4/24 6:40pm 303 8 G 13 57° 53% - - 40° 66.6° 41.7° - - -
4/24 6:30pm 302 10 G 16 58° 51% - - 39° 66.6° 41.7° - - -
4/24 6:20pm 327 12 G 21 58° 46% - - 38° 66.6° 41.7° - - -
4/24 6:10pm 311 10 G 19 59° 46% - - 38° 66.6° 41.7° - - -
4/24 6:00pm 316 10 G 20 59° 46% - - 39° 66.6° 41.7° - - -